Ship Faced — WDI9727 — position and weather

sailwx.info

Track history (hours):
 
Tides and Currents Weather Stations Pressure Air Temp Water Temp Dewpoint Dewpoint Depression Visibility Wind Speed Wind Dir Waves Ship Positions

Ship Faced

Owner: Theriot, Cameron, Tustin, CA. More information available from US FCC via Universal Licensing System.

Last reported at 2017-Nov-17 15:07 UTC. Time now 2017-Nov-25 05:49 UTC.
Position N 33°28' W 117°42'.

Length 20 m; draft 2 m.

Type: Pleasure craft. MMSI: 367751540.

Date/timePositionNaut miles runAvg speedWind from/ knotsBaromVisibWave heightAir tempDewpointWater temp
2017-Nov-17 15:07N 33°28' W 117°42'0 0.0
2017-Nov-17 15:00N 33°28' W 117°42'2 3.3
2017-Nov-17 14:30N 33°26' W 117°41'4 8.1
2017-Nov-17 14:00N 33°22' W 117°39'4 7.9
2017-Nov-17 13:30N 33°19' W 117°37'4 8.1
2017-Nov-17 13:00N 33°15' W 117°35'4 8.0
2017-Nov-17 12:30N 33°11' W 117°33'4 8.0
2017-Nov-17 12:00N 33°08' W 117°31'4 7.8
2017-Nov-17 11:30N 33°04' W 117°30'4 7.9
2017-Nov-17 11:00N 33°00' W 117°28'4 8.0
2017-Nov-17 10:30N 32°57' W 117°26'4 7.8
2017-Nov-17 10:00N 32°53' W 117°24'4 8.0
2017-Nov-17 09:30N 32°49' W 117°22'4 7.5
2017-Nov-17 09:00N 32°46' W 117°20'4 7.8
2017-Nov-17 08:30N 32°42' W 117°18'4 8.2
2017-Nov-17 08:00N 32°39' W 117°16'3 1.5
2017-Nov-17 05:42N 32°41' W 117°14'1 7.4
2017-Nov-17 05:31N 32°40' W 117°14'22 7.7
2017-Nov-17 02:40N 32°19' W 117°08'1 7.8
2017-Nov-17 02:30N 32°18' W 117°07'  
2017-Nov-12 13:14N 31°52' W 116°43'2 7.5
2017-Nov-12 13:01N 31°52' W 116°45'4 7.2
2017-Nov-12 12:28N 31°55' W 116°49'19 7.6
2017-Nov-12 10:00N 32°08' W 117°05'27 7.9
2017-Nov-12 06:35N 32°34' W 117°16'1 8.3
2017-Nov-12 06:26N 32°35' W 117°16'5 8.0
2017-Nov-12 05:51N 32°39' W 117°19'3 8.0
2017-Nov-12 05:30N 32°42' W 117°20'4 8.7
2017-Nov-12 05:00N 32°46' W 117°22'4 9.0
2017-Nov-12 04:31N 32°50' W 117°24'4 8.9
2017-Nov-12 04:01N 32°54' W 117°26'4 8.7
2017-Nov-12 03:30N 32°58' W 117°28'4 8.5
2017-Nov-12 03:00N 33°02' W 117°30'4 8.5
2017-Nov-12 02:30N 33°06' W 117°32'4 8.7
2017-Nov-12 02:00N 33°10' W 117°34'4 8.8
2017-Nov-12 01:30N 33°14' W 117°35'4 7.4
2017-Nov-12 01:00N 33°17' W 117°37'4 7.2
2017-Nov-12 00:30N 33°21' W 117°38'4 7.1
2017-Nov-12 00:00N 33°24' W 117°40'  
Track history (hours):
 
Tides and Currents Weather Stations Pressure Air Temp Water Temp Dewpoint Dewpoint Depression Visibility Wind Speed Wind Dir Waves Ship Positions

Ship Faced

Owner: Theriot, Cameron, Tustin, CA. More information available from US FCC via Universal Licensing System.

Last reported at 2017-Nov-17 15:07 UTC. Time now 2017-Nov-25 05:49 UTC.
Position N 33°28' W 117°42'.

Length 20 m; draft 2 m.

Type: Pleasure craft. MMSI: 367751540.

Date/timePositionNaut miles runAvg speedWind from/ knotsBaromVisibWave heightAir tempDewpointWater temp
2017-Nov-17 15:07N 33°28' W 117°42'0 0.0
2017-Nov-17 15:00N 33°28' W 117°42'2 3.3
2017-Nov-17 14:30N 33°26' W 117°41'4 8.1
2017-Nov-17 14:00N 33°22' W 117°39'4 7.9
2017-Nov-17 13:30N 33°19' W 117°37'4 8.1
2017-Nov-17 13:00N 33°15' W 117°35'4 8.0
2017-Nov-17 12:30N 33°11' W 117°33'4 8.0
2017-Nov-17 12:00N 33°08' W 117°31'4 7.8
2017-Nov-17 11:30N 33°04' W 117°30'4 7.9
2017-Nov-17 11:00N 33°00' W 117°28'4 8.0
2017-Nov-17 10:30N 32°57' W 117°26'4 7.8
2017-Nov-17 10:00N 32°53' W 117°24'4 8.0
2017-Nov-17 09:30N 32°49' W 117°22'4 7.5
2017-Nov-17 09:00N 32°46' W 117°20'4 7.8
2017-Nov-17 08:30N 32°42' W 117°18'4 8.2
2017-Nov-17 08:00N 32°39' W 117°16'3 1.5
2017-Nov-17 05:42N 32°41' W 117°14'1 7.4
2017-Nov-17 05:31N 32°40' W 117°14'22 7.7
2017-Nov-17 02:40N 32°19' W 117°08'1 7.8
2017-Nov-17 02:30N 32°18' W 117°07'  
2017-Nov-12 13:14N 31°52' W 116°43'2 7.5
2017-Nov-12 13:01N 31°52' W 116°45'4 7.2
2017-Nov-12 12:28N 31°55' W 116°49'19 7.6
2017-Nov-12 10:00N 32°08' W 117°05'27 7.9
2017-Nov-12 06:35N 32°34' W 117°16'1 8.3
2017-Nov-12 06:26N 32°35' W 117°16'5 8.0
2017-Nov-12 05:51N 32°39' W 117°19'3 8.0
2017-Nov-12 05:30N 32°42' W 117°20'4 8.7
2017-Nov-12 05:00N 32°46' W 117°22'4 9.0
2017-Nov-12 04:31N 32°50' W 117°24'4 8.9
2017-Nov-12 04:01N 32°54' W 117°26'4 8.7
2017-Nov-12 03:30N 32°58' W 117°28'4 8.5
2017-Nov-12 03:00N 33°02' W 117°30'4 8.5
2017-Nov-12 02:30N 33°06' W 117°32'4 8.7
2017-Nov-12 02:00N 33°10' W 117°34'4 8.8
2017-Nov-12 01:30N 33°14' W 117°35'4 7.4
2017-Nov-12 01:00N 33°17' W 117°37'4 7.2
2017-Nov-12 00:30N 33°21' W 117°38'4 7.1
2017-Nov-12 00:00N 33°24' W 117°40'  

Dump ship's entire track history